Time;durP1;ratioP1;P1;durP2;ratioP2;P2;SDS_P1;SDS_P2;PMS_P1;PMS_P2;Temp;Humidity;BMP_temperature;BMP_pressure;BME280_temperature;BME280_humidity;BME280_pressure;Samples;Min_cycle;Max_cycle;Signal;HPM_P1;HPM_P2
2023/10/07 00:01:16;;;;;;;11.35;5.78;;;;;;;18.13;60.08;102025.63;5072807;28;20045;-68
2023/10/07 00:03:44;;;;;;;14.68;5.70;;;;;;;18.29;60.37;102020.31;5055940;28;20481;-67
2023/10/07 00:06:13;;;;;;;12.93;6.28;;;;;;;18.45;59.91;102021.41;5073969;28;20059;-67
2023/10/07 00:08:41;;;;;;;14.10;5.68;;;;;;;18.46;60.61;102023.88;5074099;28;20541;-68
2023/10/07 00:11:11;;;;;;;13.30;6.15;;;;;;;18.48;59.81;102027.16;5073951;28;20052;-66
2023/10/07 00:13:42;;;;;;;14.32;5.80;;;;;;;18.53;60.23;102026.94;5073829;28;20054;-67
2023/10/07 00:16:16;;;;;;;12.18;5.88;;;;;;;18.26;60.16;102019.00;5073178;28;20055;-67
2023/10/07 00:18:45;;;;;;;11.32;5.18;;;;;;;18.19;60.28;102026.25;5061877;28;20056;-66
2023/10/07 00:21:15;;;;;;;14.57;5.60;;;;;;;18.07;60.44;102026.94;5071803;28;20049;-68
2023/10/07 00:23:42;;;;;;;10.77;5.30;;;;;;;18.07;61.25;102026.09;5072826;28;20591;-66
2023/10/07 00:26:10;;;;;;;10.70;5.25;;;;;;;18.11;61.01;102024.31;5073664;28;20063;-66
2023/10/07 00:28:45;;;;;;;12.35;5.90;;;;;;;18.17;60.68;102017.38;5019866;28;20543;-66
2023/10/07 00:31:22;;;;;;;13.13;5.45;;;;;;;18.07;61.05;102021.34;5064030;28;20047;-66
2023/10/07 00:36:41;;;;;;;12.35;5.68;;;;;;;17.91;61.41;102018.28;5055119;28;20684;-66
2023/10/07 00:39:09;;;;;;;11.93;5.65;;;;;;;18.09;61.81;102015.44;5073165;28;20166;-68
2023/10/07 00:41:58;;;;;;;13.52;5.72;;;;;;;18.07;61.65;102014.97;5022462;28;20048;-66
2023/10/07 00:44:33;;;;;;;11.20;6.25;;;;;;;18.20;61.49;102019.53;5055569;28;20511;-66
2023/10/07 00:47:12;;;;;;;11.45;5.68;;;;;;;17.93;61.25;102018.78;5073757;28;20048;-65
2023/10/07 00:50:05;;;;;;;10.48;5.80;;;;;;;18.01;61.45;102019.09;5072946;28;20056;-66
2023/10/07 00:52:33;;;;;;;12.32;6.28;;;;;;;17.90;61.74;102011.06;5073237;28;20053;-63
2023/10/07 01:00:40;;;;;;;14.15;6.28;;;;;;;17.88;62.46;102012.56;5054253;28;20072;-62
2023/10/07 01:03:12;;;;;;;14.82;5.80;;;;;;;18.05;61.95;102011.69;5040401;28;20056;-62
2023/10/07 01:05:54;;;;;;;10.55;5.63;;;;;;;17.88;62.25;102016.16;5055432;28;20048;-62
2023/10/07 01:08:36;;;;;;;14.15;5.68;;;;;;;18.10;62.45;102006.75;5054915;28;20415;-63
2023/10/07 01:11:11;;;;;;;11.82;5.70;;;;;;;18.05;62.67;102004.13;5072817;28;20048;-63
2023/10/07 01:13:56;;;;;;;13.40;6.25;;;;;;;18.05;62.07;101997.72;5054752;28;20062;-63
2023/10/07 01:22:12;;;;;;;14.77;5.63;;;;;;;17.90;62.48;101990.75;5037830;28;20049;-64
2023/10/07 01:27:18;;;;;;;11.52;5.50;;;;;;;17.96;62.88;101993.00;5057391;28;20611;-63
2023/10/07 01:29:50;;;;;;;12.60;5.20;;;;;;;17.77;63.33;101975.84;5074295;28;20102;-63
2023/10/07 01:32:17;;;;;;;13.38;5.72;;;;;;;17.70;63.79;101972.75;5076280;28;20052;-63
2023/10/07 01:34:48;;;;;;;12.98;5.68;;;;;;;17.73;63.32;101968.50;5091146;28;20114;-63
2023/10/07 01:37:20;;;;;;;15.10;5.68;;;;;;;18.02;63.31;101967.75;5085589;28;20053;-63
2023/10/07 01:39:49;;;;;;;11.52;5.45;;;;;;;17.89;63.27;101961.22;5055374;28;20522;-63
2023/10/07 01:45:20;;;;;;;13.38;5.45;;;;;;;17.84;63.68;101955.81;5044521;28;20052;-62
2023/10/07 01:47:57;;;;;;;9.75;4.93;;;;;;;17.91;64.13;101950.56;5058487;28;20049;-63
2023/10/07 01:50:24;;;;;;;12.15;5.30;;;;;;;18.04;63.75;101943.13;5043679;28;20053;-63
2023/10/07 01:52:55;;;;;;;13.88;5.40;;;;;;;17.77;63.59;101947.97;5038621;28;20048;-63
2023/10/07 01:55:27;;;;;;;12.88;5.00;;;;;;;17.77;64.15;101949.94;5041752;28;20052;-63
2023/10/07 01:57:55;;;;;;;12.77;5.13;;;;;;;17.80;64.58;101950.09;5055991;28;20761;-63
2023/10/07 02:03:23;;;;;;;13.05;4.97;;;;;;;17.96;64.37;101950.38;5055735;28;20049;-63
2023/10/07 02:05:52;;;;;;;13.07;5.60;;;;;;;17.83;64.25;101952.22;5072947;28;20049;-63
2023/10/07 02:08:22;;;;;;;11.13;5.00;;;;;;;17.76;64.90;101965.03;5058218;28;20056;-64
2023/10/07 02:10:50;;;;;;;10.52;4.90;;;;;;;17.95;64.82;101963.50;5041055;28;20052;-64
2023/10/07 02:13:19;;;;;;;12.90;5.50;;;;;;;17.95;64.58;101968.25;5070212;28;20051;-64
2023/10/07 02:15:48;;;;;;;16.50;5.22;;;;;;;18.04;63.85;101974.63;5057643;28;20438;-63
2023/10/07 02:18:16;;;;;;;13.63;4.85;;;;;;;17.92;64.24;101980.88;5065512;28;20047;-63
2023/10/07 02:20:49;;;;;;;17.45;5.72;;;;;;;17.87;64.27;101978.28;5058131;28;20056;-63
2023/10/07 02:23:37;;;;;;;13.45;5.88;;;;;;;17.74;63.89;101987.66;5056198;28;20041;-63
2023/10/07 02:26:14;;;;;;;12.25;5.32;;;;;;;17.52;64.79;101992.63;5038095;28;20045;-63
2023/10/07 02:28:43;;;;;;;16.02;5.70;;;;;;;17.00;66.94;101994.50;5049431;28;20056;-63
2023/10/07 02:31:18;;;;;;;10.50;4.35;;;;;;;17.38;68.36;101998.31;5074508;28;20052;-64
2023/10/07 02:33:51;;;;;;;10.95;4.70;;;;;;;17.65;67.36;101999.97;5075595;28;20052;-64
2023/10/07 02:36:32;;;;;;;14.60;5.15;;;;;;;17.64;66.51;102001.91;5075798;28;20055;-63
2023/10/07 02:41:48;;;;;;;10.98;4.88;;;;;;;17.65;66.29;101983.25;5074486;28;20044;-63
2023/10/07 02:44:26;;;;;;;14.32;4.85;;;;;;;17.68;66.82;101994.53;5074480;28;20492;-64
2023/10/07 02:46:56;;;;;;;13.35;5.55;;;;;;;17.77;65.99;101992.56;5075412;28;20052;-63
2023/10/07 02:49:25;;;;;;;11.10;5.28;;;;;;;17.69;66.80;101990.63;5056586;28;20521;-63
2023/10/07 02:51:56;;;;;;;12.75;6.07;;;;;;;17.77;67.06;101992.56;5074988;28;20052;-63
2023/10/07 02:54:32;;;;;;;11.57;4.72;;;;;;;17.77;67.04;101984.22;5075365;28;20055;-63
2023/10/07 02:57:10;;;;;;;10.45;4.75;;;;;;;17.52;67.07;101982.25;5075424;28;20049;-63
2023/10/07 02:59:49;;;;;;;11.40;4.90;;;;;;;17.72;67.23;101981.59;5056650;28;20546;-63
2023/10/07 03:04:58;;;;;;;10.60;4.97;;;;;;;17.81;66.92;101976.84;5075094;28;20049;-62
2023/10/07 03:07:26;;;;;;;11.93;4.88;;;;;;;17.79;67.08;101976.34;5070828;28;20445;-64
2023/10/07 03:10:04;;;;;;;11.63;4.80;;;;;;;17.67;67.28;101976.19;5074688;28;20052;-63
2023/10/07 03:12:36;;;;;;;10.57;5.40;;;;;;;17.75;67.03;101980.09;5055939;28;20044;-63
2023/10/07 03:15:20;;;;;;;15.63;5.25;;;;;;;17.68;66.85;101983.41;5073906;28;20404;-63
2023/10/07 03:17:49;;;;;;;14.18;5.30;;;;;;;17.59;67.43;101987.38;5074470;28;20063;-63
2023/10/07 03:23:18;;;;;;;9.73;4.97;;;;;;;17.49;67.62;101980.16;5074276;28;20048;-63
2023/10/07 03:28:16;;;;;;;;;;;;;;;17.69;66.95;101995.38;5047936;28;20160;-61
2023/10/07 03:30:51;;;;;;;12.27;5.28;;;;;;;17.65;67.07;101995.22;5066738;28;19927;-63
2023/10/07 03:33:23;;;;;;;12.38;4.63;;;;;;;17.58;66.94;101991.28;5074449;28;20055;-63
2023/10/07 03:38:25;;;;;;;12.90;5.20;;;;;;;17.50;67.50;101994.91;5074681;28;20053;-63
2023/10/07 03:40:56;;;;;;;12.33;5.27;;;;;;;17.50;67.93;101992.94;5074254;28;20051;-63
2023/10/07 03:43:26;;;;;;;10.13;5.13;;;;;;;17.54;67.41;101993.91;5073854;28;20043;-62
2023/10/07 03:45:54;;;;;;;11.43;5.35;;;;;;;17.50;67.46;101998.53;5074254;28;20053;-63
2023/10/07 03:48:25;;;;;;;15.10;5.50;;;;;;;17.49;68.05;101991.28;5055801;28;20041;-62
2023/10/07 03:50:59;;;;;;;15.35;5.93;;;;;;;17.57;67.65;101990.44;5073213;28;20090;-62
2023/10/07 03:53:31;;;;;;;14.68;6.25;;;;;;;17.74;67.57;101987.66;5071178;28;20032;-61
2023/10/07 03:56:00;;;;;;;17.95;6.78;;;;;;;17.57;67.43;101990.44;5068216;28;20049;-62
2023/10/07 03:58:28;;;;;;;16.73;6.88;;;;;;;17.63;67.17;101989.16;5055006;28;20052;-62
2023/10/07 04:00:55;;;;;;;12.55;6.63;;;;;;;17.59;67.66;101987.38;5073232;28;20052;-62
2023/10/07 04:03:24;;;;;;;13.30;6.45;;;;;;;17.73;66.90;101993.56;5073393;28;20051;-63
2023/10/07 04:05:51;;;;;;;11.05;6.10;;;;;;;17.58;67.83;101992.09;5073897;28;20044;-62
2023/10/07 04:08:18;;;;;;;11.80;6.15;;;;;;;17.55;67.21;101998.34;5073495;28;20048;-62
2023/10/07 04:10:47;;;;;;;13.10;5.47;;;;;;;17.66;67.93;101999.63;5072934;28;20057;-62
2023/10/07 04:13:21;;;;;;;14.35;5.88;;;;;;;17.42;67.80;101995.69;5073352;28;20059;-63
2023/10/07 04:15:52;;;;;;;11.38;5.40;;;;;;;17.40;68.19;101996.00;5073922;28;20691;-63
2023/10/07 04:18:34;;;;;;;11.20;5.32;;;;;;;17.41;68.15;101994.06;5055311;28;20388;-62
2023/10/07 04:21:01;;;;;;;15.63;5.40;;;;;;;17.51;68.00;101986.22;5054897;28;20056;-65
2023/10/07 04:23:29;;;;;;;10.95;4.93;;;;;;;17.57;67.92;101989.66;5058035;28;20060;-63
2023/10/07 04:26:05;;;;;;;14.80;5.68;;;;;;;17.52;68.24;101987.03;5053678;28;20075;-63
2023/10/07 04:28:32;;;;;;;11.20;5.57;;;;;;;17.57;67.93;101987.66;5055350;28;20044;-63
2023/10/07 04:31:00;;;;;;;11.48;4.80;;;;;;;17.58;68.06;101988.50;5072966;28;20052;-63
2023/10/07 04:33:39;;;;;;;9.15;5.03;;;;;;;17.46;68.07;101986.38;5073385;28;20059;-62
2023/10/07 04:36:12;;;;;;;11.20;4.60;;;;;;;17.53;68.36;101983.09;5054445;28;20060;-63
2023/10/07 04:43:59;;;;;;;15.40;5.35;;;;;;;17.61;67.68;101988.66;5052482;28;20052;-62
2023/10/07 04:46:30;;;;;;;16.00;5.95;;;;;;;17.49;67.67;101980.16;5055938;28;20051;-63
2023/10/07 04:49:12;;;;;;;11.13;4.90;;;;;;;17.49;68.79;101977.38;5055063;28;20045;-62
2023/10/07 04:54:35;;;;;;;11.30;5.32;;;;;;;17.55;67.98;101987.19;5053135;28;20380;-63
2023/10/07 04:57:00;;;;;;;11.50;5.05;;;;;;;17.37;68.43;101979.13;5038423;28;20056;-62
2023/10/07 04:59:28;;;;;;;10.98;4.97;;;;;;;17.45;69.29;101979.13;5052562;28;20052;-62
2023/10/07 05:02:01;;;;;;;11.98;5.18;;;;;;;17.56;68.32;101980.47;5072718;28;20053;-63
2023/10/07 05:04:28;;;;;;;13.13;6.07;;;;;;;17.69;68.37;101982.25;5057403;28;20048;-62
2023/10/07 05:06:56;;;;;;;13.52;5.82;;;;;;;17.74;67.76;101986.84;5058271;28;20052;-62
2023/10/07 05:09:26;;;;;;;10.25;5.25;;;;;;;17.76;67.58;101985.38;5062196;28;20036;-65
2023/10/07 05:11:53;;;;;;;14.98;5.90;;;;;;;17.69;67.41;101987.84;5077189;28;20044;-62
2023/10/07 05:14:22;;;;;;;12.93;6.05;;;;;;;17.61;68.24;101990.63;5077122;28;20086;-62
2023/10/07 05:16:51;;;;;;;12.68;5.97;;;;;;;17.58;68.71;101992.09;5074862;28;20057;-63
2023/10/07 05:19:27;;;;;;;12.37;5.80;;;;;;;17.70;67.51;101983.06;5072308;28;20123;-62
2023/10/07 05:24:41;;;;;;;10.60;5.85;;;;;;;17.74;67.78;101993.25;5056798;28;20052;-62
2023/10/07 05:27:08;;;;;;;15.13;5.70;;;;;;;17.80;67.85;101994.69;5056134;28;20044;-63
2023/10/07 05:29:36;;;;;;;11.32;5.57;;;;;;;17.59;67.14;101995.72;5076826;28;20048;-62
2023/10/07 05:32:06;;;;;;;12.95;5.47;;;;;;;17.65;68.05;101998.00;5075152;28;20056;-64
2023/10/07 05:34:33;;;;;;;;;;;;;;;17.53;67.97;101991.44;5039712;28;20053;-63
2023/10/07 05:37:10;;;;;;;11.55;5.00;;;;;;;17.61;68.31;101999.81;5057540;28;19921;-63
2023/10/07 05:39:41;;;;;;;14.40;5.35;;;;;;;17.71;67.70;101998.66;5058150;28;20064;-63
2023/10/07 05:42:11;;;;;;;13.95;5.38;;;;;;;17.66;67.91;101994.06;5039285;28;20055;-62
2023/10/07 05:44:40;;;;;;;11.55;5.25;;;;;;;17.69;67.80;101995.38;5073762;28;20393;-62
2023/10/07 05:47:09;;;;;;;15.75;6.25;;;;;;;17.72;67.99;101995.53;5075253;28;20048;-63
2023/10/07 05:49:37;;;;;;;15.00;5.93;;;;;;;17.86;67.66;102003.69;5057603;28;20055;-63
2023/10/07 05:52:05;;;;;;;10.02;4.72;;;;;;;17.80;68.22;101997.47;5075608;28;20044;-67
2023/10/07 05:54:33;;;;;;;10.25;5.47;;;;;;;17.68;67.68;101999.28;5057108;28;20052;-63
2023/10/07 05:57:05;;;;;;;15.32;5.60;;;;;;;17.53;68.20;101997.84;5075131;28;20057;-61
2023/10/07 05:59:33;;;;;;;12.45;5.55;;;;;;;17.51;68.03;101991.78;5072720;28;20492;-62
2023/10/07 06:02:05;;;;;;;12.77;5.40;;;;;;;17.28;68.52;101993.06;5061710;28;20048;-62
2023/10/07 06:04:35;;;;;;;14.05;6.00;;;;;;;17.37;68.29;101991.09;5062800;28;20041;-62
2023/10/07 06:07:06;;;;;;;12.60;4.80;;;;;;;17.59;68.00;101985.38;5042100;28;20423;-61
2023/10/07 06:09:36;;;;;;;13.43;5.82;;;;;;;17.52;67.67;101985.06;5072549;28;20049;-62
2023/10/07 06:12:07;;;;;;;12.25;5.65;;;;;;;17.73;67.31;101982.44;5058686;28;20052;-62
2023/10/07 06:14:35;;;;;;;11.43;6.18;;;;;;;17.63;66.52;101993.91;5072140;28;20552;-63
2023/10/07 06:17:06;;;;;;;21.30;6.28;;;;;;;17.49;67.40;101987.69;5074311;28;20097;-62
2023/10/07 06:19:36;;;;;;;17.33;6.45;;;;;;;17.50;67.81;101990.16;5065873;28;20052;-61
2023/10/07 06:22:11;;;;;;;;;;;;;;;17.44;67.99;101987.81;5072622;28;20052;-62
2023/10/07 06:24:39;;;;;;;15.30;5.80;;;;;;;17.53;68.21;101991.44;5074030;28;19928;-62
2023/10/07 06:27:11;;;;;;;10.50;5.60;;;;;;;17.64;67.19;101999.13;5075264;28;20419;-62
2023/10/07 06:29:43;;;;;;;14.52;5.68;;;;;;;17.56;67.83;101999.97;5073282;28;20045;-61
2023/10/07 06:32:23;;;;;;;17.92;5.63;;;;;;;17.68;67.39;102002.06;5074037;28;20067;-62
2023/10/07 06:34:54;;;;;;;;;;;;;;;17.59;67.24;102004.88;5071515;28;20041;-64
2023/10/07 06:37:28;;;;;;;11.32;5.72;;;;;;;17.64;67.94;102007.50;5075154;28;19931;-63
2023/10/07 06:40:00;;;;;;;12.50;5.20;;;;;;;17.76;67.37;101999.31;5054166;28;20045;-62
2023/10/07 06:42:28;;;;;;;11.25;5.18;;;;;;;17.60;67.57;101998.19;5073900;28;20060;-62
2023/10/07 06:44:56;;;;;;;12.23;5.57;;;;;;;17.70;67.59;101999.78;5069392;28;20056;-62
2023/10/07 06:47:29;;;;;;;12.82;5.80;;;;;;;17.77;67.16;102000.94;5056883;28;20048;-62
2023/10/07 06:49:58;;;;;;;14.77;5.45;;;;;;;17.71;67.14;102012.59;5074502;28;20057;-64
2023/10/07 06:52:26;;;;;;;16.58;5.90;;;;;;;17.88;66.86;102018.13;5073852;28;20059;-64
2023/10/07 06:54:56;;;;;;;12.85;5.53;;;;;;;17.84;66.33;102011.56;5055598;28;20049;-62
2023/10/07 06:57:38;;;;;;;16.40;5.90;;;;;;;17.81;66.87;102012.25;5070998;28;20586;-62
2023/10/07 07:00:11;;;;;;;10.93;6.00;;;;;;;17.86;66.90;102012.88;5054674;28;20405;-64
2023/10/07 07:02:41;;;;;;;15.40;6.68;;;;;;;17.78;66.52;102016.50;5063227;28;20049;-62
2023/10/07 07:05:14;;;;;;;13.43;5.90;;;;;;;17.86;66.16;102012.06;5065964;28;20041;-63
2023/10/07 07:07:41;;;;;;;11.27;5.40;;;;;;;17.70;66.64;102011.75;5071463;28;21014;-62
2023/10/07 07:10:16;;;;;;;11.60;4.97;;;;;;;17.89;67.02;102014.19;5072752;28;20048;-61
2023/10/07 07:12:44;;;;;;;11.88;5.18;;;;;;;17.95;65.60;102012.88;5071165;28;20056;-62
2023/10/07 07:15:26;;;;;;;13.18;5.53;;;;;;;17.85;66.64;102013.22;5065926;28;20688;-62
2023/10/07 07:18:08;;;;;;;11.93;5.20;;;;;;;17.86;66.60;102003.69;5070952;28;20052;-63
2023/10/07 07:23:24;;;;;;;17.35;6.18;;;;;;;18.06;66.51;102013.34;5073292;28;20055;-64
2023/10/07 07:28:31;;;;;;;9.45;4.32;;;;;;;17.79;67.16;102015.34;5069748;28;20408;-62
2023/10/07 07:30:59;;;;;;;11.85;5.30;;;;;;;17.86;67.27;102017.63;5071374;28;20048;-64
2023/10/07 07:33:35;;;;;;;14.05;6.15;;;;;;;18.08;66.51;102016.63;5071646;28;20044;-64
2023/10/07 07:36:18;;;;;;;15.63;5.65;;;;;;;18.13;65.39;102030.38;5062348;28;20420;-63
2023/10/07 07:38:46;;;;;;;14.00;5.85;;;;;;;18.04;65.24;102040.72;5050729;28;20064;-63
2023/10/07 07:41:27;;;;;;;14.02;6.57;;;;;;;17.86;66.11;102037.16;5069832;28;20048;-63
2023/10/07 07:44:01;;;;;;;21.48;7.55;;;;;;;17.90;69.11;102046.50;5072589;28;20250;-64
2023/10/07 07:46:51;;;;;;;19.80;10.57;;;;;;;18.18;70.23;102036.59;5072448;28;20388;-63
2023/10/07 07:49:27;;;;;;;28.80;18.75;;;;;;;18.40;68.93;102047.53;5072676;28;20048;-64
2023/10/07 07:51:55;;;;;;;20.48;8.48;;;;;;;18.35;67.60;102047.69;5060246;28;20049;-65
2023/10/07 07:54:24;;;;;;;20.23;9.85;;;;;;;18.03;65.41;102053.84;5050417;28;20048;-63
2023/10/07 07:56:54;;;;;;;33.47;13.85;;;;;;;17.92;65.74;102052.56;5063682;28;20053;-65
2023/10/07 07:59:22;;;;;;;26.38;17.88;;;;;;;17.75;65.86;102058.97;5069138;28;20048;-69
2023/10/07 08:02:11;;;;;;;19.88;10.13;;;;;;;17.70;67.20;102063.88;5070333;28;20048;-67
2023/10/07 08:04:49;;;;;;;21.90;8.00;;;;;;;17.80;67.26;102064.38;5071759;28;20036;-64
2023/10/07 08:09:57;;;;;;;22.67;8.07;;;;;;;18.11;65.89;102068.91;5070150;28;20067;-62
2023/10/07 08:12:28;;;;;;;30.67;17.08;;;;;;;18.02;65.88;102065.31;5053817;28;20055;-63
2023/10/07 08:15:09;;;;;;;22.63;9.15;;;;;;;18.17;66.32;102085.13;5071580;28;20664;-61
2023/10/07 08:17:37;;;;;;;17.83;7.78;;;;;;;18.06;65.15;102089.44;5050024;28;20055;-62
2023/10/07 08:20:10;;;;;;;20.77;7.28;;;;;;;17.89;64.83;102093.06;5033751;28;20064;-63
2023/10/07 08:22:45;;;;;;;18.55;7.18;;;;;;;17.78;65.36;102096.53;5066659;28;20044;-62
2023/10/07 08:25:25;;;;;;;28.75;7.60;;;;;;;18.02;66.81;102094.03;5059010;28;20068;-61
2023/10/07 08:27:55;;;;;;;14.35;7.45;;;;;;;17.85;65.27;102099.63;5067066;28;20571;-63
2023/10/07 08:30:37;;;;;;;12.07;6.18;;;;;;;17.93;65.07;102088.47;5063603;28;20510;-63
2023/10/07 08:33:06;;;;;;;14.55;7.38;;;;;;;17.98;66.19;102091.09;5062213;28;20059;-64
2023/10/07 08:35:34;;;;;;;23.40;6.93;;;;;;;18.41;65.67;102093.81;5066821;28;20053;-65
2023/10/07 08:38:03;;;;;;;14.05;6.57;;;;;;;18.70;64.29;102096.69;5065302;28;20049;-63
2023/10/07 08:40:40;;;;;;;18.67;6.45;;;;;;;18.81;64.08;102100.72;5047575;28;20055;-61
2023/10/07 08:43:16;;;;;;;33.33;6.70;;;;;;;19.08;62.37;102105.03;5082362;28;20087;-63
2023/10/07 08:45:45;;;;;;;13.25;6.70;;;;;;;19.09;62.69;102095.47;5071429;28;20072;-63
2023/10/07 08:48:16;;;;;;;15.98;7.10;;;;;;;19.02;62.77;102098.00;5038519;28;20056;-61
2023/10/07 08:50:58;;;;;;;13.90;6.82;;;;;;;19.40;61.87;102103.53;5055014;28;20551;-62
2023/10/07 08:53:29;;;;;;;20.25;8.65;;;;;;;19.42;61.13;102101.22;5066868;28;20049;-67
2023/10/07 08:55:57;;;;;;;23.45;12.57;;;;;;;19.63;60.66;102102.06;5049458;28;20051;-68
2023/10/07 08:58:28;;;;;;;20.48;9.13;;;;;;;19.86;59.64;102097.72;5049069;28;20070;-67
2023/10/07 09:00:56;;;;;;;20.40;8.75;;;;;;;19.94;59.79;102097.69;5066477;28;20036;-68
2023/10/07 09:03:28;;;;;;;20.75;8.40;;;;;;;20.01;59.42;102100.72;5070733;28;20052;-67
2023/10/07 09:06:06;;;;;;;16.60;8.80;;;;;;;20.02;59.38;102101.53;5069429;28;20056;-68
2023/10/07 09:08:37;;;;;;;16.15;9.88;;;;;;;20.08;59.33;102100.19;5069408;28;20064;-68
2023/10/07 09:11:10;;;;;;;18.65;7.47;;;;;;;20.02;59.64;102113.56;5051040;28;20036;-69
2023/10/07 09:13:38;;;;;;;16.67;7.95;;;;;;;20.17;59.35;102111.31;5068266;28;20056;-68
2023/10/07 09:16:07;;;;;;;16.20;7.72;;;;;;;20.11;59.29;102110.66;5070797;28;20049;-68
2023/10/07 09:18:40;;;;;;;15.48;6.70;;;;;;;19.94;59.84;102102.44;5070858;28;20048;-69
2023/10/07 09:21:22;;;;;;;20.42;7.40;;;;;;;20.20;59.39;102096.63;5068663;28;20052;-69
2023/10/07 09:23:52;;;;;;;17.50;7.70;;;;;;;20.37;58.82;102093.63;5049881;28;20056;-68
2023/10/07 09:26:30;;;;;;;17.88;7.32;;;;;;;20.35;58.75;102102.38;5065823;28;20047;-68
2023/10/07 09:29:14;;;;;;;14.80;7.00;;;;;;;20.46;58.53;102094.38;5069581;28;20056;-68
2023/10/07 09:31:56;;;;;;;18.67;6.90;;;;;;;20.51;58.22;102096.94;5070802;28;20048;-68
2023/10/07 09:34:32;;;;;;;15.88;6.63;;;;;;;20.49;58.57;102102.88;5070166;28;20044;-68
2023/10/07 09:37:08;;;;;;;16.63;6.15;;;;;;;20.44;58.41;102097.50;5063682;28;20056;-68
2023/10/07 09:39:44;;;;;;;19.10;6.40;;;;;;;20.57;58.50;102092.75;5067137;28;20049;-68
2023/10/07 09:47:46;;;;;;;12.70;5.90;;;;;;;20.83;57.42;102096.88;5069616;28;20669;-68
2023/10/07 09:50:27;;;;;;;11.23;5.75;;;;;;;21.01;56.91;102103.91;5050154;28;20048;-68
2023/10/07 09:53:14;;;;;;;14.85;5.00;;;;;;;21.07;56.64;102093.28;5072083;28;20045;-68
2023/10/07 09:56:11;;;;;;;10.43;5.38;;;;;;;21.07;56.74;102096.09;5073743;28;20612;-67
2023/10/07 09:59:00;;;;;;;12.07;5.10;;;;;;;21.14;56.53;102104.72;5055444;28;21534;-66
2023/10/07 10:01:38;;;;;;;12.82;4.70;;;;;;;21.07;56.52;102112.91;5072821;28;20055;-68
2023/10/07 10:04:36;;;;;;;12.02;4.97;;;;;;;21.02;56.29;102111.16;5031214;28;20048;-66
2023/10/07 10:07:22;;;;;;;11.60;4.75;;;;;;;20.96;56.57;102111.69;5053724;28;20044;-67
2023/10/07 10:10:05;;;;;;;9.95;4.07;;;;;;;21.13;56.72;102112.31;5044865;28;20060;-67
2023/10/07 10:12:49;;;;;;;8.57;4.55;;;;;;;21.23;55.68;102111.81;5038842;28;20048;-68
2023/10/07 10:17:55;;;;;;;12.35;4.45;;;;;;;20.89;57.36;102117.88;5074196;28;20056;-66
2023/10/07 10:20:27;;;;;;;11.73;4.03;;;;;;;21.29;56.28;102108.81;5055644;28;20063;-62
2023/10/07 10:22:59;;;;;;;8.90;4.03;;;;;;;21.56;54.84;102097.66;5073802;28;20044;-64
2023/10/07 10:28:03;;;;;;;12.88;3.55;;;;;;;21.43;54.87;102106.47;5055828;28;20570;-63
2023/10/07 10:30:31;;;;;;;9.30;4.82;;;;;;;21.48;55.08;102106.22;5050733;28;20049;-62
2023/10/07 10:33:08;;;;;;;12.15;4.93;;;;;;;21.78;54.04;102101.94;5074429;28;20067;-62
2023/10/07 10:35:40;;;;;;;9.02;3.70;;;;;;;21.61;54.31;102099.38;5073528;28;20044;-65
2023/10/07 10:38:09;;;;;;;9.02;3.97;;;;;;;21.78;53.33;102093.50;5071510;28;20052;-63
2023/10/07 10:40:37;;;;;;;12.27;4.57;;;;;;;22.00;53.13;102090.19;5068954;28;20055;-63
2023/10/07 10:43:05;;;;;;;10.68;3.53;;;;;;;21.81;53.11;102099.22;5072193;28;20056;-62
2023/10/07 10:45:33;;;;;;;9.57;4.05;;;;;;;21.51;53.55;102095.09;5073499;28;20048;-67
2023/10/07 10:48:00;;;;;;;11.60;3.80;;;;;;;21.61;53.28;102094.59;5074017;28;20044;-64
2023/10/07 10:50:32;;;;;;;11.18;3.83;;;;;;;21.53;53.59;102092.72;5073428;28;20060;-62
2023/10/07 10:53:00;;;;;;;14.07;3.80;;;;;;;21.17;53.90;102090.00;5073381;28;20056;-65
2023/10/07 10:55:34;;;;;;;7.55;3.53;;;;;;;21.56;54.36;102094.84;5064151;28;20048;-66
2023/10/07 10:58:02;;;;;;;9.35;4.53;;;;;;;21.87;53.31;102091.38;5071613;28;20048;-62
2023/10/07 11:00:29;;;;;;;10.00;4.05;;;;;;;21.73;53.67;102096.53;5068790;28;20446;-63
2023/10/07 11:02:56;;;;;;;10.82;4.50;;;;;;;21.87;53.56;102094.19;5034127;28;20056;-63
2023/10/07 11:05:25;;;;;;;9.75;4.13;;;;;;;21.88;53.43;102093.81;5070484;28;20063;-62
2023/10/07 11:07:54;;;;;;;11.15;4.32;;;;;;;21.96;53.04;102087.28;5072782;28;20056;-62
2023/10/07 11:10:23;;;;;;;12.38;3.45;;;;;;;21.86;52.84;102084.94;5053332;28;20052;-62
2023/10/07 11:12:52;;;;;;;9.82;4.47;;;;;;;21.94;53.50;102083.19;5069251;28;20067;-61
2023/10/07 11:15:27;;;;;;;9.65;4.63;;;;;;;22.32;52.60;102083.44;5068151;28;20089;-61
2023/10/07 11:18:11;;;;;;;8.75;3.92;;;;;;;22.25;52.57;102072.84;5058044;28;20056;-62
2023/10/07 11:20:40;;;;;;;17.67;5.93;;;;;;;22.35;52.19;102080.72;5072504;28;20048;-61
2023/10/07 11:23:08;;;;;;;8.48;4.30;;;;;;;22.51;51.54;102086.38;5072637;28;20507;-61
2023/10/07 11:25:36;;;;;;;10.43;4.00;;;;;;;22.14;51.29;102074.53;5070009;28;20052;-62
2023/10/07 11:28:09;;;;;;;8.95;3.95;;;;;;;22.28;51.55;102065.72;5069891;28;20507;-63
2023/10/07 11:30:47;;;;;;;10.32;3.70;;;;;;;22.27;51.67;102064.88;5071569;28;20116;-60
2023/10/07 11:33:19;;;;;;;9.82;4.20;;;;;;;22.32;52.91;102067.41;5071931;28;20048;-60
2023/10/07 11:35:59;;;;;;;9.57;4.10;;;;;;;22.41;52.04;102060.81;5070249;28;20033;-60
2023/10/07 11:38:27;;;;;;;9.18;3.65;;;;;;;22.23;54.24;102063.13;5069097;28;20040;-61
2023/10/07 11:40:55;;;;;;;36.58;11.32;;;;;;;22.44;56.08;102062.91;5072775;28;20040;-62
2023/10/07 11:43:23;;;;;;;14.15;7.32;;;;;;;22.79;55.11;102055.41;5071272;28;20052;-62
2023/10/07 11:45:50;;;;;;;26.65;14.68;;;;;;;22.83;56.49;102056.31;5052286;28;20063;-62
2023/10/07 11:48:21;;;;;;;21.02;9.75;;;;;;;22.86;58.20;102059.22;5067315;28;20456;-63
2023/10/07 11:50:49;;;;;;;13.32;6.95;;;;;;;22.86;54.04;102056.41;5071045;28;20048;-61
2023/10/07 11:53:19;;;;;;;13.48;5.47;;;;;;;22.80;56.11;102057.88;5071302;28;20052;-61
2023/10/07 11:55:47;;;;;;;14.90;7.13;;;;;;;22.58;55.14;102044.44;5069133;28;20498;-59
2023/10/07 11:58:15;;;;;;;8.38;4.13;;;;;;;22.53;52.74;102041.06;5054000;28;20057;-61
2023/10/07 12:00:43;;;;;;;11.75;5.82;;;;;;;22.66;56.51;102059.50;5070635;28;20679;-62
2023/10/07 12:03:10;;;;;;;8.75;4.53;;;;;;;22.70;53.98;102054.81;5062443;28;20052;-62
2023/10/07 12:05:43;;;;;;;13.07;7.00;;;;;;;22.98;54.24;102052.69;5061397;28;20048;-62
2023/10/07 12:08:14;;;;;;;14.82;6.15;;;;;;;22.96;54.56;102052.25;5064743;28;20053;-64
2023/10/07 12:10:41;;;;;;;12.07;5.15;;;;;;;22.90;54.29;102056.50;5062504;28;20440;-60
2023/10/07 12:13:14;;;;;;;12.90;3.30;;;;;;;22.39;51.45;102061.19;5064484;28;20032;-62
2023/10/07 12:15:42;;;;;;;7.57;3.15;;;;;;;22.47;53.26;102065.00;5046980;28;20061;-62
2023/10/07 12:18:13;;;;;;;8.90;3.72;;;;;;;22.80;52.61;102052.25;5070878;28;20499;-62
2023/10/07 12:20:40;;;;;;;13.38;5.95;;;;;;;23.06;52.35;102060.09;5070007;28;20044;-63
2023/10/07 12:23:07;;;;;;;12.65;4.70;;;;;;;23.05;52.49;102064.91;5049122;28;20049;-61
2023/10/07 12:25:38;;;;;;;7.95;4.03;;;;;;;22.95;51.73;102059.03;5072263;28;20052;-62
2023/10/07 12:28:05;;;;;;;10.98;4.88;;;;;;;23.02;52.15;102053.56;5048965;28;20044;-62
2023/10/07 12:30:34;;;;;;;13.05;4.72;;;;;;;23.35;50.78;102059.59;5069254;28;20048;-62
2023/10/07 12:33:04;;;;;;;7.80;3.33;;;;;;;23.44;49.46;102065.84;5071358;28;20051;-63
2023/10/07 12:35:38;;;;;;;10.80;4.03;;;;;;;23.44;50.23;102065.84;5071431;28;20052;-62
2023/10/07 12:38:06;;;;;;;12.18;4.13;;;;;;;23.38;50.28;102059.69;5068353;28;20041;-62
2023/10/07 12:40:33;;;;;;;11.40;4.18;;;;;;;23.41;49.05;102058.13;5071102;28;20048;-63
2023/10/07 12:43:01;;;;;;;11.30;3.40;;;;;;;23.48;49.50;102058.28;5061982;28;20044;-64
2023/10/07 12:45:30;;;;;;;10.50;4.93;;;;;;;23.63;50.13;102060.22;5071426;28;20549;-63
2023/10/07 12:47:59;;;;;;;13.00;5.07;;;;;;;23.60;50.72;102060.97;5071059;28;20060;-63